createdAt,value
2022-11-21T00:03:23.139Z,986.20
2022-11-21T00:08:23.071Z,986.20
2022-11-21T00:13:23.009Z,986.10
2022-11-21T00:18:22.941Z,986.04
2022-11-21T00:23:22.880Z,985.95
2022-11-21T00:28:22.814Z,985.82
2022-11-21T00:33:22.753Z,985.69
2022-11-21T00:38:22.681Z,985.62
2022-11-21T00:43:22.625Z,985.65
2022-11-21T00:48:22.555Z,985.60
2022-11-21T00:53:22.497Z,985.53
2022-11-21T00:58:22.436Z,985.46
2022-11-21T01:03:22.520Z,985.38
2022-11-21T01:08:22.310Z,985.25
2022-11-21T01:13:22.241Z,985.17
2022-11-21T01:18:22.181Z,985.09
2022-11-21T01:23:22.113Z,985.05
2022-11-21T01:28:22.053Z,985.01
2022-11-21T01:33:21.986Z,984.98
2022-11-21T01:38:21.914Z,984.91
2022-11-21T01:43:21.859Z,984.93
2022-11-21T01:48:21.786Z,984.85
2022-11-21T01:53:21.732Z,984.83
2022-11-21T01:58:21.657Z,984.80
2022-11-21T02:03:21.601Z,984.71
2022-11-21T02:08:21.530Z,984.74
2022-11-21T02:13:21.478Z,984.75
2022-11-21T02:18:21.411Z,984.72
2022-11-21T02:23:21.347Z,984.71
2022-11-21T02:28:21.285Z,984.75
2022-11-21T02:33:21.220Z,984.75
2022-11-21T02:38:21.156Z,984.71
2022-11-21T02:43:21.092Z,984.70
2022-11-21T02:48:21.032Z,984.74
2022-11-21T02:53:20.967Z,984.73
2022-11-21T02:58:20.897Z,984.72
2022-11-21T03:03:20.838Z,984.75
2022-11-21T03:08:20.766Z,984.76
2022-11-21T03:13:20.709Z,984.83
2022-11-21T03:18:20.640Z,984.82
2022-11-21T03:23:20.588Z,984.89
2022-11-21T03:28:20.514Z,984.89
2022-11-21T03:33:20.454Z,984.92
2022-11-21T03:38:20.393Z,984.92
2022-11-21T03:43:20.327Z,985.00
2022-11-21T03:48:20.264Z,985.05
2022-11-21T03:53:20.197Z,985.10
2022-11-21T03:58:20.151Z,985.10
2022-11-21T04:03:20.069Z,985.15
2022-11-21T04:08:20.010Z,985.17
2022-11-21T04:13:19.943Z,985.26
2022-11-21T04:18:19.872Z,985.36
2022-11-21T04:23:19.817Z,985.45
2022-11-21T04:28:19.741Z,985.52
2022-11-21T04:33:19.686Z,985.49
2022-11-21T04:38:19.618Z,985.65
2022-11-21T04:43:19.577Z,985.67
2022-11-21T04:48:19.497Z,985.84
2022-11-21T04:53:19.453Z,985.95
2022-11-21T04:58:19.369Z,985.98
2022-11-21T05:03:19.319Z,985.99
2022-11-21T05:08:19.242Z,986.02
2022-11-21T05:13:19.189Z,986.06
2022-11-21T05:18:19.113Z,986.16
2022-11-21T05:23:19.055Z,986.17
2022-11-21T05:28:18.985Z,986.22
2022-11-21T05:33:18.926Z,986.36
2022-11-21T05:38:18.856Z,986.48
2022-11-21T05:43:18.804Z,986.46
2022-11-21T05:48:18.728Z,986.58
2022-11-21T05:53:18.672Z,986.64
2022-11-21T05:58:18.603Z,986.79
2022-11-21T06:03:18.600Z,986.90
2022-11-21T06:08:18.495Z,987.01
2022-11-21T06:13:18.417Z,987.12
2022-11-21T06:18:18.355Z,987.24
2022-11-21T06:23:18.287Z,987.37
2022-11-21T06:28:18.228Z,987.46
2022-11-21T06:33:18.160Z,987.52
2022-11-21T06:38:18.099Z,987.53
2022-11-21T06:43:18.030Z,987.67
2022-11-21T06:48:17.982Z,987.77
2022-11-21T06:53:17.905Z,987.85
2022-11-21T06:58:17.832Z,987.85
2022-11-21T07:03:17.775Z,987.86
2022-11-21T07:08:17.703Z,988.03
2022-11-21T07:13:17.647Z,988.12
2022-11-21T07:18:17.574Z,988.09
2022-11-21T07:23:17.519Z,988.13
2022-11-21T07:28:17.453Z,988.10
2022-11-21T07:33:17.391Z,988.21
2022-11-21T07:38:17.329Z,988.28
2022-11-21T07:43:17.265Z,988.33
2022-11-21T07:48:17.204Z,988.31
2022-11-21T07:53:17.140Z,988.37
2022-11-21T07:58:17.074Z,988.44
2022-11-21T08:03:17.008Z,988.49
2022-11-21T08:08:16.945Z,988.56
2022-11-21T08:13:16.883Z,988.62
2022-11-21T08:18:16.817Z,988.60
2022-11-21T08:23:16.755Z,988.64
2022-11-21T08:28:16.690Z,988.72
2022-11-21T08:33:16.717Z,988.69
2022-11-21T08:38:16.562Z,988.59
2022-11-21T08:43:16.497Z,988.71
2022-11-21T08:48:16.435Z,988.80
2022-11-21T08:53:16.368Z,988.83
2022-11-21T08:58:16.297Z,988.90
2022-11-21T09:03:21.766Z,988.94
2022-11-21T09:08:16.167Z,988.88
2022-11-21T09:13:16.111Z,988.92
2022-11-21T09:18:16.039Z,988.94
2022-11-21T09:23:15.983Z,988.95
2022-11-21T09:28:15.911Z,989.03
2022-11-21T09:33:15.857Z,989.01
2022-11-21T09:38:19.723Z,989.13
2022-11-21T09:43:15.729Z,989.10
2022-11-21T09:48:15.666Z,989.14
2022-11-21T09:53:15.600Z,989.13
2022-11-21T09:58:15.539Z,989.07
2022-11-21T10:03:19.385Z,989.13
2022-11-21T10:08:15.409Z,989.11
2022-11-21T10:13:15.345Z,989.09
2022-11-21T10:18:15.299Z,989.06
2022-11-21T10:23:15.217Z,989.17
2022-11-21T10:28:15.148Z,989.09
2022-11-21T10:33:15.092Z,988.97
2022-11-21T10:38:15.020Z,988.90
2022-11-21T10:43:14.965Z,988.84
2022-11-21T10:48:14.892Z,988.90
2022-11-21T10:53:14.834Z,988.86
2022-11-21T10:58:14.764Z,988.90
2022-11-21T11:03:14.711Z,988.86
2022-11-21T11:08:14.638Z,988.83
2022-11-21T11:18:15.550Z,988.83
2022-11-21T11:23:14.456Z,988.74
2022-11-21T11:28:14.380Z,988.67
2022-11-21T11:33:14.326Z,988.58
2022-11-21T11:38:14.255Z,988.62
2022-11-21T11:43:14.209Z,988.56
2022-11-21T11:48:14.129Z,988.57
2022-11-21T11:53:14.081Z,988.54
2022-11-21T11:58:13.998Z,988.63
2022-11-21T12:03:13.949Z,988.60
2022-11-21T12:08:40.671Z,988.54
2022-11-21T12:13:14.849Z,988.49
2022-11-21T12:18:13.744Z,988.51
2022-11-21T12:23:13.682Z,988.56
2022-11-21T12:28:13.613Z,988.57
2022-11-21T12:33:13.556Z,988.45
2022-11-21T12:38:13.485Z,988.38
2022-11-21T12:43:13.429Z,988.40
2022-11-21T12:48:13.357Z,988.40
2022-11-21T12:53:13.297Z,988.32
2022-11-21T12:58:13.227Z,988.21
2022-11-21T13:03:13.180Z,988.12
2022-11-21T13:08:13.098Z,988.01
2022-11-21T13:13:13.051Z,987.92
2022-11-21T13:18:12.994Z,987.95
2022-11-21T13:23:12.925Z,987.80
2022-11-21T13:28:12.843Z,987.80
2022-11-21T13:33:16.122Z,987.74
2022-11-21T13:38:12.724Z,987.74
2022-11-21T13:48:13.633Z,987.64
2022-11-21T13:53:12.523Z,987.66
2022-11-21T13:58:12.467Z,987.56
2022-11-21T14:03:12.399Z,987.56
2022-11-21T14:08:12.385Z,987.52
2022-11-21T14:13:12.268Z,987.46
2022-11-21T14:18:12.217Z,987.42
2022-11-21T14:23:12.151Z,987.41
2022-11-21T14:28:12.086Z,987.33
2022-11-21T14:33:12.026Z,987.31
2022-11-21T14:38:11.956Z,987.30
2022-11-21T14:43:11.900Z,987.33
2022-11-21T14:48:11.831Z,987.28
2022-11-21T14:53:11.770Z,987.21
2022-11-21T14:58:11.700Z,987.21
2022-11-21T15:03:11.697Z,987.49
2022-11-21T15:08:40.348Z,987.49
2022-11-21T15:13:12.530Z,987.49
2022-11-21T15:18:27.076Z,987.38
2022-11-21T15:23:12.400Z,987.19
2022-11-21T15:28:11.318Z,987.02
2022-11-21T15:33:11.248Z,986.85
2022-11-21T15:38:11.193Z,986.84
2022-11-21T15:43:11.131Z,986.86
2022-11-21T15:48:11.063Z,986.76
2022-11-21T15:53:11.002Z,986.61
2022-11-21T15:58:13.226Z,986.55
2022-11-21T16:03:10.878Z,986.63
2022-11-21T16:08:10.810Z,986.59
2022-11-21T16:13:10.746Z,986.45
2022-11-21T16:18:10.688Z,986.45
2022-11-21T16:23:10.611Z,986.33
2022-11-21T16:28:10.562Z,986.13
2022-11-21T16:33:10.483Z,986.11
2022-11-21T16:38:10.436Z,986.02
2022-11-21T16:43:10.357Z,986.07
2022-11-21T16:48:10.308Z,986.04
2022-11-21T16:53:10.225Z,986.00
2022-11-21T16:58:10.169Z,985.98
2022-11-21T17:03:10.102Z,985.97
2022-11-21T17:08:10.040Z,985.92
2022-11-21T17:13:09.969Z,985.94
2022-11-21T17:18:09.913Z,985.92
2022-11-21T17:23:09.841Z,985.91
2022-11-21T17:28:09.784Z,985.86
2022-11-21T17:33:09.716Z,985.73
2022-11-21T17:38:09.666Z,985.47
2022-11-21T17:43:09.585Z,985.37
2022-11-21T17:48:09.546Z,985.20
2022-11-21T17:53:09.459Z,985.05
2022-11-21T17:58:09.410Z,984.99
2022-11-21T18:03:09.329Z,984.99
2022-11-21T18:08:09.286Z,984.83
2022-11-21T18:13:09.202Z,984.71
2022-11-21T18:18:09.148Z,984.70
2022-11-21T18:23:09.077Z,984.62
2022-11-21T18:28:09.021Z,984.53
2022-11-21T18:33:08.949Z,984.42
2022-11-21T18:38:08.893Z,984.46
2022-11-21T18:43:08.821Z,984.37
2022-11-21T18:48:08.843Z,984.31
2022-11-21T18:53:08.693Z,984.37
2022-11-21T18:58:08.635Z,984.32
2022-11-21T19:03:08.564Z,984.22
2022-11-21T19:08:08.505Z,984.39
2022-11-21T19:13:08.453Z,984.16
2022-11-21T19:18:08.378Z,984.22
2022-11-21T19:23:08.312Z,984.13
2022-11-21T19:28:08.250Z,984.15
2022-11-21T19:33:08.181Z,984.28
2022-11-21T19:38:08.134Z,984.10
2022-11-21T19:43:08.053Z,984.10
2022-11-21T19:48:08.007Z,983.95
2022-11-21T19:53:07.924Z,983.82
2022-11-21T19:58:08.127Z,983.77
2022-11-21T20:03:07.802Z,983.67
2022-11-21T20:08:16.438Z,983.64
2022-11-21T20:13:07.672Z,983.64
2022-11-21T20:18:07.617Z,983.61
2022-11-21T20:23:07.546Z,983.56
2022-11-21T20:28:11.615Z,983.59
2022-11-21T20:33:11.310Z,983.61
2022-11-21T20:38:07.362Z,983.79
2022-11-21T20:43:07.289Z,983.82
2022-11-21T20:48:11.164Z,983.89
2022-11-21T20:58:08.137Z,984.08
2022-11-21T21:03:07.033Z,984.11
2022-11-21T21:08:06.987Z,984.12
2022-11-21T21:13:06.905Z,984.17
2022-11-21T21:18:06.862Z,984.19
2022-11-21T21:23:06.785Z,984.06
2022-11-21T21:28:06.729Z,983.92
2022-11-21T21:33:06.651Z,983.84
2022-11-21T21:38:09.071Z,983.67
2022-11-21T21:43:06.534Z,983.61
2022-11-21T21:48:06.468Z,983.59
2022-11-21T21:53:06.409Z,983.51
2022-11-21T21:58:06.340Z,983.43
2022-11-21T22:03:06.280Z,983.37
2022-11-21T22:08:06.215Z,983.37
2022-11-21T22:13:06.155Z,983.32
2022-11-21T22:18:06.087Z,983.24
2022-11-21T22:23:06.017Z,983.24
2022-11-21T22:28:05.959Z,983.26
2022-11-21T22:33:05.891Z,983.10
2022-11-21T22:38:05.836Z,983.07
2022-11-21T22:43:05.765Z,983.07
2022-11-21T22:48:05.714Z,983.00
2022-11-21T22:53:05.636Z,983.03
2022-11-21T22:58:05.582Z,982.96
2022-11-21T23:03:05.520Z,982.90
2022-11-21T23:08:05.454Z,982.98
2022-11-21T23:13:05.394Z,982.90
2022-11-21T23:18:05.328Z,982.80
2022-11-21T23:23:05.269Z,982.73
2022-11-21T23:28:05.203Z,982.65
2022-11-21T23:33:05.139Z,982.61
2022-11-21T23:38:05.072Z,982.44
2022-11-21T23:43:04.999Z,982.41
2022-11-21T23:48:04.943Z,982.45
2022-11-21T23:53:04.872Z,982.41
2022-11-21T23:58:04.815Z,982.44
